COMO2: Grand River, Commerce, OK

                                SHEF ID:       COMO2     Neosho River nr Commerce, OK
STATION TYPE:
Regulating: Stage = 15.00, Flow = 21598

PRECIP STAGE STAGE(2) RIV-FLOW BAT-LOAD
in ft ft cfs volt
Ccp-Rev Ccp-Rev Ccp-Rev Ccp-Rev Ccp-Rev
(America/Chicago)
04/11 00:00 0.00 4.00 ---- 2310 12.34
04/11 01:00 0.00 4.01 ---- 2335 12.32
04/11 02:00 0.00 4.02 ---- 2359 12.29
04/11 03:00 0.00 4.03 ---- 2384 12.25
04/11 04:00 0.00 4.04 ---- 2409 12.24
04/11 05:00 0.00 4.06 ---- 2458 12.23
04/11 06:00 0.00 4.08 ---- 2508 12.21
04/11 07:00 0.00 4.11 ---- 2582 12.22
04/11 08:00 0.00 4.14 ---- 2656 12.38
04/11 09:00 0.00 4.18 ---- 2754 13.22
04/11 10:00 0.00 4.22 ---- 2853 13.23
04/11 11:00 0.00 4.28 ---- 3001 13.19
04/11 12:00 0.00 4.35 ---- 3174 12.84
04/11 13:00 0.00 4.44 ---- 3396 12.83
04/11 14:00 0.00 4.53 ---- 3619 12.84
04/11 15:00 0.00 4.63 ---- 3865 12.82
04/11 16:00 0.00 4.73 ---- 4112 12.72
04/11 17:00 0.00 4.80 ---- 4285 12.68
04/11 18:00 0.00 4.88 ---- 4482 12.73
04/11 19:00 0.00 4.94 ---- 4630 12.75
04/11 20:00 0.00 5.01 ---- 4794 12.54
04/11 21:00 0.00 5.05 ---- 4858 12.44
04/11 22:00 0.00 5.10 ---- 4937 12.40
04/11 23:00 0.00 5.14 ---- 5001 12.39
Data processed at Sun 12Apr2026 04:36 GMT

NOTICE: If you are parsing this page

Please convert to using our Data API. Starting early 2026 we will be migrating to: https://water.usace.army.mil with modern pages rendered in JavaScript. When this migration completes you will no longer be able to scrape this page! CWMSDataAPI (CDA)

Timeseries IDs (TSIDs)

TSIDs used from left to right in the data table
COMM.Precip-Inc.Total.1Hour.1Hour.Ccp-Rev
COMM.Stage.Inst.1Hour.0.Ccp-Rev
COMM.Stage-Alt.Inst.1Hour.0.Ccp-Rev
COMM.Flow.Inst.1Hour.0.Ccp-Rev
COMM.Volt-Battery Load.Inst.1Hour.0.Ccp-Rev

                            

All information presented herein is the property of the government of the United States of America and may be revised or deleted at any time without prior notice. Dissemination of this information without the expressed written consent of the Public Affairs Office, Tulsa District U.S. Army Corps of Engineers is strictly prohibited. These data are gathered electronically and, as presented, have NOT undergone any form of quality control. These data are NOT guaranteed to be valid or correct.